Time;durP1;ratioP1;P1;durP2;ratioP2;P2;SDS_P1;SDS_P2;PMS_P1;PMS_P2;Temp;Humidity;BMP_temperature;BMP_pressure;BME280_temperature;BME280_humidity;BME280_pressure;Samples;Min_cycle;Max_cycle;Signal;HPM_P1;HPM_P2
2022/03/24 00:02:02;;;;;;;64.60;31.35;;;;;;;;;;1761744;81;21517;-70
2022/03/24 00:04:29;;;;;;;71.28;34.18;;;;;;;;;;1734835;81;21151;-70
2022/03/24 00:06:56;;;;;;;75.32;35.45;;;;;;;;;;1728169;83;21090;-71
2022/03/24 00:09:22;;;;;;;60.95;28.52;;;;;;;;;;1727817;83;21016;-70
2022/03/24 00:11:49;;;;;;;67.08;36.58;;;;;;;;;;1728298;83;21027;-71
2022/03/24 00:14:18;;;;;;;64.15;29.80;;;;;;;;;;1728463;83;21032;-71
2022/03/24 00:16:45;;;;;;;74.92;35.33;;;;;;;;;;1728097;83;21059;-71
2022/03/24 00:19:12;;;;;;;62.08;29.60;;;;;;;;;;1728410;83;21036;-71
2022/03/24 00:21:38;;;;;;;62.10;30.45;;;;;;;;;;1728290;83;21032;-71
2022/03/24 00:24:08;;;;;;;60.85;31.55;;;;;;;;;;1728145;83;21084;-69
2022/03/24 00:26:36;;;;;;;62.17;29.98;;;;;;;;;;1728381;83;21091;-70
2022/03/24 00:29:04;;;;;;;52.00;28.25;;;;;;;;;;1724315;83;21060;-69
2022/03/24 00:31:30;;;;;;;64.58;31.00;;;;;;;;;;1720380;83;21598;-69
2022/03/24 00:33:58;;;;;;;51.65;26.73;;;;;;;;;;1720397;83;21519;-69
2022/03/24 00:36:25;;;;;;;46.60;24.47;;;;;;;;;;1720539;83;21021;-69
2022/03/24 00:38:53;;;;;;;54.05;26.65;;;;;;;;;;1720193;83;21053;-72
2022/03/24 00:41:21;;;;;;;53.63;27.90;;;;;;;;;;1720186;83;21040;-72
2022/03/24 00:43:50;;;;;;;46.73;25.32;;;;;;;;;;1719704;83;21060;-71
2022/03/24 00:46:21;;;;;;;46.18;25.00;;;;;;;;;;1720267;83;21079;-71
2022/03/24 00:48:48;;;;;;;47.17;25.35;;;;;;;;;;1720172;83;21084;-69
2022/03/24 00:51:15;;;;;;;53.68;26.42;;;;;;;;;;1719868;83;20985;-69
2022/03/24 00:53:43;;;;;;;50.33;23.55;;;;;;;;;;1720038;83;21032;-69
2022/03/24 00:56:10;;;;;;;53.38;25.97;;;;;;;;;;1720028;83;21095;-70
2022/03/24 00:58:38;;;;;;;42.80;23.47;;;;;;;;;;1719831;83;21060;-70
2022/03/24 01:03:56;;;;;;;45.63;25.80;;;;;;;;;;1688240;80;21172;-70
2022/03/24 01:06:26;;;;;;;45.40;24.92;;;;;;;;;;1698803;84;21560;-69
2022/03/24 01:08:54;;;;;;;40.43;24.57;;;;;;;;;;1698814;84;21092;-69
2022/03/24 01:11:21;;;;;;;49.50;24.82;;;;;;;;;;1698765;84;21084;-69
2022/03/24 01:13:49;;;;;;;45.52;24.65;;;;;;;;;;1698653;84;21124;-69
2022/03/24 01:16:16;;;;;;;52.70;25.62;;;;;;;;;;1699149;84;21092;-70
2022/03/24 01:18:45;;;;;;;50.28;28.30;;;;;;;;;;1698794;84;21009;-70
2022/03/24 01:21:16;;;;;;;50.35;26.52;;;;;;;;;;1698848;84;21096;-69
2022/03/24 01:23:40;;;;;;;49.15;25.43;;;;;;;;;;1699068;83;21087;-70
2022/03/24 01:26:07;;;;;;;53.15;26.52;;;;;;;;;;1698894;84;21895;-69
2022/03/24 01:28:35;;;;;;;50.90;26.35;;;;;;;;;;1698647;84;21539;-70
2022/03/24 01:31:02;;;;;;;45.35;24.12;;;;;;;;;;1698554;84;21583;-70
2022/03/24 01:33:28;;;;;;;44.85;24.67;;;;;;;;;;1698730;84;21033;-70
2022/03/24 01:35:55;;;;;;;54.35;27.35;;;;;;;;;;1698847;83;21065;-70
2022/03/24 01:38:23;;;;;;;47.62;24.27;;;;;;;;;;1698843;84;21108;-70
2022/03/24 01:40:50;;;;;;;47.98;24.32;;;;;;;;;;1698938;84;21080;-70
2022/03/24 01:43:17;;;;;;;43.58;21.02;;;;;;;;;;1698731;84;21077;-70
2022/03/24 01:45:45;;;;;;;40.35;21.27;;;;;;;;;;1698936;84;20993;-70
2022/03/24 01:48:14;;;;;;;48.83;23.10;;;;;;;;;;1698891;84;21092;-70
2022/03/24 01:50:41;;;;;;;37.80;19.52;;;;;;;;;;1698935;84;21084;-70
2022/03/24 01:53:08;;;;;;;45.20;20.55;;;;;;;;;;1698606;84;21611;-70
2022/03/24 01:55:37;;;;;;;43.85;20.72;;;;;;;;;;1698537;84;21599;-70
2022/03/24 01:58:04;;;;;;;38.95;20.80;;;;;;;;;;1698639;84;21595;-70
2022/03/24 02:00:32;;;;;;;37.38;19.30;;;;;;;;;;1698714;84;21555;-70
2022/03/24 02:03:02;;;;;;;34.85;19.07;;;;;;;;;;1701442;82;21041;-70
2022/03/24 02:05:30;;;;;;;34.92;17.85;;;;;;;;;;1716694;82;21532;-70
2022/03/24 02:08:02;;;;;;;34.03;17.15;;;;;;;;;;1715518;84;21261;-70
2022/03/24 02:10:27;;;;;;;36.98;17.40;;;;;;;;;;1715453;84;21115;-69
2022/03/24 02:12:56;;;;;;;31.00;15.13;;;;;;;;;;1715886;84;21073;-70
2022/03/24 02:15:25;;;;;;;29.63;16.30;;;;;;;;;;1715705;84;21663;-69
2022/03/24 02:17:52;;;;;;;32.53;15.20;;;;;;;;;;1715077;84;21081;-69
2022/03/24 02:20:22;;;;;;;29.95;15.50;;;;;;;;;;1715681;84;21092;-69
2022/03/24 02:22:49;;;;;;;36.13;16.77;;;;;;;;;;1715997;84;21026;-69
2022/03/24 02:25:16;;;;;;;31.85;16.73;;;;;;;;;;1715405;84;21604;-70
2022/03/24 02:27:47;;;;;;;31.35;17.17;;;;;;;;;;1716013;84;21017;-69
2022/03/24 02:30:11;;;;;;;31.55;15.63;;;;;;;;;;1715446;84;21042;-69
2022/03/24 02:32:39;;;;;;;34.20;16.75;;;;;;;;;;1715830;84;21019;-69
2022/03/24 02:35:07;;;;;;;36.58;16.93;;;;;;;;;;1715939;84;21564;-70
2022/03/24 02:37:33;;;;;;;31.10;16.15;;;;;;;;;;1715951;84;21065;-70
2022/03/24 02:40:00;;;;;;;35.08;17.87;;;;;;;;;;1715710;84;21116;-70
2022/03/24 02:42:27;;;;;;;35.25;16.27;;;;;;;;;;1716164;84;20998;-70
2022/03/24 02:44:55;;;;;;;34.65;16.40;;;;;;;;;;1715628;84;21150;-70
2022/03/24 02:47:23;;;;;;;30.17;15.43;;;;;;;;;;1715710;84;21536;-70
2022/03/24 02:49:51;;;;;;;29.77;14.50;;;;;;;;;;1715700;84;21084;-70
2022/03/24 02:52:18;;;;;;;31.15;15.08;;;;;;;;;;1715737;84;21090;-70
2022/03/24 02:54:46;;;;;;;29.37;15.00;;;;;;;;;;1715586;84;21073;-70
2022/03/24 02:57:12;;;;;;;35.80;15.10;;;;;;;;;;1715707;84;21100;-70
2022/03/24 02:59:40;;;;;;;32.45;14.93;;;;;;;;;;1715592;84;21080;-70
2022/03/24 03:02:07;;;;;;;27.20;13.15;;;;;;;;;;1715790;84;21587;-70
2022/03/24 03:04:35;;;;;;;32.23;14.28;;;;;;;;;;1720384;83;21096;-70
2022/03/24 03:07:03;;;;;;;25.68;12.80;;;;;;;;;;1727308;82;21080;-71
2022/03/24 03:09:30;;;;;;;30.30;13.40;;;;;;;;;;1727137;83;21103;-70
2022/03/24 03:11:58;;;;;;;27.40;13.62;;;;;;;;;;1727334;83;21041;-70
2022/03/24 03:14:25;;;;;;;22.25;12.00;;;;;;;;;;1727122;83;21132;-71
2022/03/24 03:16:53;;;;;;;30.85;14.20;;;;;;;;;;1727156;83;21053;-71
2022/03/24 03:19:19;;;;;;;30.95;15.63;;;;;;;;;;1727362;83;21605;-71
2022/03/24 03:21:49;;;;;;;26.10;14.80;;;;;;;;;;1727183;83;21697;-71
2022/03/24 03:24:15;;;;;;;23.47;12.10;;;;;;;;;;1727287;83;21056;-71
2022/03/24 03:26:42;;;;;;;26.42;12.47;;;;;;;;;;1727306;83;21064;-71
2022/03/24 03:29:08;;;;;;;25.17;12.63;;;;;;;;;;1727468;83;21052;-71
2022/03/24 03:31:36;;;;;;;28.27;12.63;;;;;;;;;;1727247;83;21089;-70
2022/03/24 03:34:03;;;;;;;24.45;12.93;;;;;;;;;;1727105;83;21084;-71
2022/03/24 03:36:30;;;;;;;24.52;11.73;;;;;;;;;;1727269;83;21588;-71
2022/03/24 03:38:58;;;;;;;24.45;13.13;;;;;;;;;;1727182;83;22026;-71
2022/03/24 03:41:26;;;;;;;30.30;12.28;;;;;;;;;;1727270;83;21583;-71
2022/03/24 03:43:53;;;;;;;23.40;11.85;;;;;;;;;;1727481;83;21036;-71
2022/03/24 03:46:19;;;;;;;22.95;11.45;;;;;;;;;;1727325;83;21068;-71
2022/03/24 03:48:47;;;;;;;26.33;11.60;;;;;;;;;;1727193;83;21045;-71
2022/03/24 03:51:15;;;;;;;19.07;9.80;;;;;;;;;;1727093;83;21045;-71
2022/03/24 03:53:42;;;;;;;23.05;11.60;;;;;;;;;;1727255;83;21065;-71
2022/03/24 03:56:09;;;;;;;24.37;11.50;;;;;;;;;;1727338;83;21049;-71
2022/03/24 03:58:36;;;;;;;20.82;10.95;;;;;;;;;;1727265;83;21035;-71
2022/03/24 04:01:03;;;;;;;22.90;10.03;;;;;;;;;;1727466;83;21056;-69
2022/03/24 04:03:31;;;;;;;21.57;10.75;;;;;;;;;;1727282;82;21077;-69
2022/03/24 04:06:03;;;;;;;26.45;11.73;;;;;;;;;;1727019;83;21065;-69
2022/03/24 04:08:31;;;;;;;20.25;11.03;;;;;;;;;;1727439;83;21104;-70
2022/03/24 04:10:58;;;;;;;23.10;11.65;;;;;;;;;;1727259;82;21056;-69
2022/03/24 04:13:25;;;;;;;19.40;10.88;;;;;;;;;;1727025;83;21076;-70
2022/03/24 04:15:54;;;;;;;23.42;10.60;;;;;;;;;;1727244;83;21062;-69
2022/03/24 04:18:22;;;;;;;22.70;11.50;;;;;;;;;;1727643;83;21033;-70
2022/03/24 04:20:50;;;;;;;21.50;11.33;;;;;;;;;;1727186;83;21073;-69
2022/03/24 04:23:17;;;;;;;25.82;11.93;;;;;;;;;;1727255;83;21104;-70
2022/03/24 04:25:45;;;;;;;23.52;11.30;;;;;;;;;;1727519;83;21404;-69
2022/03/24 04:28:12;;;;;;;24.95;12.55;;;;;;;;;;1727664;83;21064;-69
2022/03/24 04:30:39;;;;;;;27.60;13.25;;;;;;;;;;1727270;83;21512;-69
2022/03/24 04:33:06;;;;;;;32.63;15.65;;;;;;;;;;1727223;82;21056;-70
2022/03/24 04:35:34;;;;;;;29.80;16.52;;;;;;;;;;1727504;83;21076;-69
2022/03/24 04:38:00;;;;;;;28.92;15.23;;;;;;;;;;1727296;83;21109;-72
2022/03/24 04:40:28;;;;;;;26.50;14.28;;;;;;;;;;1727392;83;21133;-69
2022/03/24 04:42:55;;;;;;;34.67;17.95;;;;;;;;;;1727594;83;21044;-69
2022/03/24 04:45:22;;;;;;;29.80;15.88;;;;;;;;;;1727264;83;21112;-69
2022/03/24 04:47:50;;;;;;;35.58;18.48;;;;;;;;;;1727563;83;21072;-70
2022/03/24 04:50:17;;;;;;;36.30;20.27;;;;;;;;;;1727421;83;21084;-70
2022/03/24 04:52:45;;;;;;;38.40;20.35;;;;;;;;;;1727239;83;22186;-71
2022/03/24 04:55:13;;;;;;;45.35;24.80;;;;;;;;;;1727545;83;21037;-70
2022/03/24 04:57:39;;;;;;;51.33;25.20;;;;;;;;;;1727375;83;21495;-69
2022/03/24 05:00:06;;;;;;;53.42;27.67;;;;;;;;;;1727315;83;21571;-70
2022/03/24 05:02:33;;;;;;;57.30;27.90;;;;;;;;;;1727449;82;21116;-70
2022/03/24 05:05:01;;;;;;;51.30;28.35;;;;;;;;;;1727042;82;21072;-69
2022/03/24 05:07:27;;;;;;;56.15;30.10;;;;;;;;;;1727396;83;21563;-70
2022/03/24 05:09:55;;;;;;;51.63;27.77;;;;;;;;;;1727246;83;21087;-70
2022/03/24 05:12:23;;;;;;;50.12;26.20;;;;;;;;;;1727305;83;21118;-69
2022/03/24 05:14:51;;;;;;;48.40;27.07;;;;;;;;;;1727208;83;21520;-70
2022/03/24 05:17:17;;;;;;;61.40;35.17;;;;;;;;;;1727673;83;21111;-69
2022/03/24 05:19:48;;;;;;;57.78;29.45;;;;;;;;;;1727287;83;21064;-71
2022/03/24 05:22:15;;;;;;;59.70;33.20;;;;;;;;;;1727387;83;21017;-70
2022/03/24 05:24:41;;;;;;;53.50;31.05;;;;;;;;;;1727592;83;21033;-72
2022/03/24 05:27:08;;;;;;;53.87;29.37;;;;;;;;;;1727329;83;21144;-70
2022/03/24 05:29:36;;;;;;;54.08;31.15;;;;;;;;;;1727416;83;21531;-71
2022/03/24 05:32:04;;;;;;;52.80;31.55;;;;;;;;;;1727384;83;21524;-71
2022/03/24 05:34:32;;;;;;;50.60;29.48;;;;;;;;;;1727240;83;21060;-72
2022/03/24 05:36:58;;;;;;;49.95;32.05;;;;;;;;;;1727238;83;21064;-70
2022/03/24 05:39:26;;;;;;;49.98;27.22;;;;;;;;;;1727503;83;21061;-70
2022/03/24 05:41:53;;;;;;;50.83;28.07;;;;;;;;;;1727096;83;21501;-71
2022/03/24 05:44:20;;;;;;;43.10;26.37;;;;;;;;;;1727348;83;21065;-71
2022/03/24 05:46:46;;;;;;;46.98;26.52;;;;;;;;;;1727149;83;21041;-71
2022/03/24 05:49:15;;;;;;;41.83;23.50;;;;;;;;;;1727557;83;21063;-72
2022/03/24 05:51:58;;;;;;;43.02;24.75;;;;;;;;;;1727259;83;21598;-71
2022/03/24 05:54:24;;;;;;;43.80;25.05;;;;;;;;;;1727768;83;21108;-72
2022/03/24 05:56:53;;;;;;;39.27;23.70;;;;;;;;;;1727155;83;21073;-72
2022/03/24 05:59:19;;;;;;;41.65;24.82;;;;;;;;;;1727272;83;21656;-71
2022/03/24 06:01:47;;;;;;;38.48;22.37;;;;;;;;;;1727025;82;21029;-71
2022/03/24 06:04:13;;;;;;;39.63;23.57;;;;;;;;;;1727227;82;21049;-71
2022/03/24 06:06:41;;;;;;;36.85;20.72;;;;;;;;;;1727027;83;21537;-71
2022/03/24 06:09:08;;;;;;;37.20;21.90;;;;;;;;;;1727347;83;21080;-71
2022/03/24 06:11:35;;;;;;;37.70;21.20;;;;;;;;;;1727031;83;21041;-71
2022/03/24 06:14:03;;;;;;;44.67;25.15;;;;;;;;;;1727722;83;22265;-71
2022/03/24 06:16:32;;;;;;;38.30;20.10;;;;;;;;;;1727250;83;21018;-71
2022/03/24 06:18:59;;;;;;;36.15;23.42;;;;;;;;;;1727154;83;21080;-71
2022/03/24 06:21:28;;;;;;;36.45;19.75;;;;;;;;;;1727249;83;21163;-71
2022/03/24 06:23:54;;;;;;;35.15;20.23;;;;;;;;;;1727337;83;21024;-72
2022/03/24 06:26:23;;;;;;;35.80;20.27;;;;;;;;;;1727124;83;20994;-71
2022/03/24 06:28:50;;;;;;;32.13;16.95;;;;;;;;;;1727408;83;21641;-71
2022/03/24 06:31:17;;;;;;;34.33;16.32;;;;;;;;;;1727248;83;21001;-71
2022/03/24 06:33:43;;;;;;;31.65;16.97;;;;;;;;;;1727281;83;21048;-71
2022/03/24 06:36:10;;;;;;;32.63;19.60;;;;;;;;;;1727221;83;21572;-71
2022/03/24 06:38:37;;;;;;;34.15;16.82;;;;;;;;;;1727350;83;21013;-71
2022/03/24 06:41:05;;;;;;;29.52;16.07;;;;;;;;;;1727257;83;21056;-69
2022/03/24 06:43:34;;;;;;;35.10;20.17;;;;;;;;;;1727601;83;21044;-72
2022/03/24 06:46:00;;;;;;;29.50;15.35;;;;;;;;;;1727418;83;21044;-70
2022/03/24 06:48:28;;;;;;;28.30;13.20;;;;;;;;;;1727444;83;21049;-70
2022/03/24 06:50:54;;;;;;;26.37;13.85;;;;;;;;;;1727345;83;21076;-71
2022/03/24 06:53:21;;;;;;;33.13;18.92;;;;;;;;;;1727157;83;21035;-71
2022/03/24 06:55:48;;;;;;;29.87;14.38;;;;;;;;;;1727150;83;21103;-71
2022/03/24 06:58:14;;;;;;;27.77;14.68;;;;;;;;;;1727583;83;21076;-71
2022/03/24 07:00:40;;;;;;;24.67;14.03;;;;;;;;;;1727145;83;21607;-71
2022/03/24 07:03:07;;;;;;;26.02;15.98;;;;;;;;;;1727262;82;21576;-71
2022/03/24 07:05:35;;;;;;;29.23;14.63;;;;;;;;;;1730360;83;21041;-71
2022/03/24 07:08:02;;;;;;;21.42;11.18;;;;;;;;;;1735678;83;21056;-71
2022/03/24 07:10:31;;;;;;;29.05;15.38;;;;;;;;;;1735520;83;21062;-71
2022/03/24 07:12:59;;;;;;;23.42;13.25;;;;;;;;;;1735727;83;21001;-71
2022/03/24 07:15:26;;;;;;;20.65;12.37;;;;;;;;;;1735292;83;21064;-71
2022/03/24 07:17:53;;;;;;;20.02;12.25;;;;;;;;;;1735699;83;21057;-71
2022/03/24 07:20:23;;;;;;;20.80;12.18;;;;;;;;;;1735726;82;21060;-71
2022/03/24 07:22:50;;;;;;;21.15;13.13;;;;;;;;;;1735707;83;21024;-71
2022/03/24 07:25:17;;;;;;;24.25;15.43;;;;;;;;;;1735858;83;21020;-71
2022/03/24 07:27:43;;;;;;;35.73;17.82;;;;;;;;;;1736085;83;21072;-71
2022/03/24 07:30:10;;;;;;;29.23;17.42;;;;;;;;;;1735715;83;21045;-71
2022/03/24 07:32:38;;;;;;;36.55;18.73;;;;;;;;;;1735731;83;21124;-71
2022/03/24 07:35:05;;;;;;;39.33;23.12;;;;;;;;;;1735743;83;21607;-71
2022/03/24 07:37:31;;;;;;;42.45;21.80;;;;;;;;;;1736018;83;21072;-71
2022/03/24 07:39:58;;;;;;;35.55;19.15;;;;;;;;;;1735604;83;21179;-71
2022/03/24 07:42:25;;;;;;;43.33;23.07;;;;;;;;;;1736056;83;21068;-71
2022/03/24 07:44:52;;;;;;;47.48;29.18;;;;;;;;;;1735580;83;21087;-71
2022/03/24 07:47:18;;;;;;;43.63;23.80;;;;;;;;;;1735781;83;21075;-71
2022/03/24 07:49:46;;;;;;;40.38;23.12;;;;;;;;;;1735763;83;21563;-69
2022/03/24 07:52:13;;;;;;;42.27;26.87;;;;;;;;;;1735832;83;21036;-70
2022/03/24 07:54:41;;;;;;;49.75;31.90;;;;;;;;;;1736160;83;21059;-69
2022/03/24 07:57:08;;;;;;;61.45;33.65;;;;;;;;;;1735522;83;21096;-70
2022/03/24 07:59:37;;;;;;;44.23;23.87;;;;;;;;;;1736018;83;21544;-70
2022/03/24 08:02:04;;;;;;;42.40;25.35;;;;;;;;;;1735987;82;21139;-69
2022/03/24 08:04:30;;;;;;;37.38;22.52;;;;;;;;;;1736136;83;21083;-69
2022/03/24 08:06:57;;;;;;;33.10;19.67;;;;;;;;;;1719365;82;21073;-69
2022/03/24 08:09:23;;;;;;;31.23;17.30;;;;;;;;;;1716120;84;21474;-70
2022/03/24 08:11:51;;;;;;;31.60;18.62;;;;;;;;;;1715652;84;21639;-68
2022/03/24 08:14:19;;;;;;;32.00;20.57;;;;;;;;;;1716005;84;21084;-69
2022/03/24 08:16:46;;;;;;;32.67;20.82;;;;;;;;;;1716033;84;21029;-69
2022/03/24 08:19:14;;;;;;;38.17;22.90;;;;;;;;;;1715896;84;21525;-72
2022/03/24 08:21:42;;;;;;;36.53;21.52;;;;;;;;;;1715550;84;21057;-69
2022/03/24 08:24:10;;;;;;;33.90;20.40;;;;;;;;;;1715847;84;21072;-70
2022/03/24 08:26:37;;;;;;;28.92;17.02;;;;;;;;;;1715781;84;21062;-69
2022/03/24 08:29:04;;;;;;;30.70;18.48;;;;;;;;;;1715727;84;21053;-69
2022/03/24 08:31:31;;;;;;;27.75;14.80;;;;;;;;;;1715809;84;21040;-69
2022/03/24 08:33:58;;;;;;;30.43;17.75;;;;;;;;;;1716038;84;21036;-69
2022/03/24 08:36:25;;;;;;;24.70;15.93;;;;;;;;;;1715625;84;21065;-69
2022/03/24 08:38:52;;;;;;;28.73;16.00;;;;;;;;;;1715933;84;21100;-69
2022/03/24 08:41:18;;;;;;;25.35;14.73;;;;;;;;;;1715486;84;21642;-69
2022/03/24 08:43:45;;;;;;;26.93;16.25;;;;;;;;;;1715735;84;21101;-69
2022/03/24 08:46:11;;;;;;;29.72;17.40;;;;;;;;;;1715737;84;21034;-69
2022/03/24 08:48:38;;;;;;;27.00;15.65;;;;;;;;;;1715972;84;21568;-69
2022/03/24 08:51:06;;;;;;;27.52;17.57;;;;;;;;;;1715709;84;21080;-69
2022/03/24 08:53:32;;;;;;;22.87;13.80;;;;;;;;;;1716037;84;21054;-69
2022/03/24 08:55:59;;;;;;;19.70;11.63;;;;;;;;;;1715609;84;21077;-71
2022/03/24 08:58:26;;;;;;;16.45;9.93;;;;;;;;;;1716059;84;21100;-71
2022/03/24 09:00:54;;;;;;;13.55;7.22;;;;;;;;;;1715530;84;21199;-69
2022/03/24 09:03:21;;;;;;;13.98;8.60;;;;;;;;;;1715732;83;21147;-69
2022/03/24 09:05:49;;;;;;;20.40;13.03;;;;;;;;;;1715898;83;21520;-69
2022/03/24 09:08:16;;;;;;;17.60;10.03;;;;;;;;;;1715807;84;21089;-69
2022/03/24 09:10:44;;;;;;;20.68;10.95;;;;;;;;;;1715629;84;21560;-69
2022/03/24 09:13:11;;;;;;;17.15;10.48;;;;;;;;;;1715762;84;21077;-69
2022/03/24 09:15:37;;;;;;;20.80;10.60;;;;;;;;;;1715694;84;21053;-69
2022/03/24 09:18:05;;;;;;;17.17;10.18;;;;;;;;;;1715849;84;21105;-69
2022/03/24 09:20:33;;;;;;;17.87;9.65;;;;;;;;;;1715568;84;21053;-69
2022/03/24 09:23:01;;;;;;;13.55;8.25;;;;;;;;;;1715771;84;21069;-69
2022/03/24 09:25:28;;;;;;;13.48;7.67;;;;;;;;;;1715995;84;21092;-69
2022/03/24 09:27:56;;;;;;;14.73;9.75;;;;;;;;;;1715828;84;21025;-71
2022/03/24 09:30:23;;;;;;;15.40;8.50;;;;;;;;;;1715715;84;21065;-70
2022/03/24 09:32:51;;;;;;;15.28;8.65;;;;;;;;;;1716079;84;21092;-70
2022/03/24 09:35:17;;;;;;;14.03;8.73;;;;;;;;;;1715957;84;21096;-70
2022/03/24 09:37:44;;;;;;;19.52;10.35;;;;;;;;;;1715908;84;21069;-70
2022/03/24 09:40:11;;;;;;;25.27;12.30;;;;;;;;;;1715826;84;21006;-69
2022/03/24 09:42:39;;;;;;;15.80;9.75;;;;;;;;;;1715537;84;21061;-69
2022/03/24 09:45:07;;;;;;;23.75;12.07;;;;;;;;;;1715828;84;21532;-70
2022/03/24 09:47:34;;;;;;;28.15;15.55;;;;;;;;;;1715778;84;21065;-69
2022/03/24 09:50:00;;;;;;;22.25;13.20;;;;;;;;;;1715874;84;21065;-69
2022/03/24 09:52:27;;;;;;;29.30;14.13;;;;;;;;;;1715632;84;21050;-70
2022/03/24 09:54:54;;;;;;;49.00;24.87;;;;;;;;;;1715747;84;21032;-70
2022/03/24 09:57:21;;;;;;;67.05;34.80;;;;;;;;;;1715652;84;21548;-70
2022/03/24 09:59:49;;;;;;;64.97;30.60;;;;;;;;;;1715659;84;21050;-70
2022/03/24 10:02:15;;;;;;;30.08;18.15;;;;;;;;;;1715534;83;21104;-70
2022/03/24 10:04:49;;;;;;;29.30;16.05;;;;;;;;;;1716024;84;21057;-70
2022/03/24 10:07:17;;;;;;;23.20;13.85;;;;;;;;;;1715631;82;21544;-70
2022/03/24 10:09:46;;;;;;;23.80;13.75;;;;;;;;;;1715606;84;21120;-69
2022/03/24 10:12:18;;;;;;;18.82;11.38;;;;;;;;;;1715849;83;21335;-69
2022/03/24 10:15:04;;;;;;;24.75;14.50;;;;;;;;;;1715385;84;21580;-70
2022/03/24 10:17:31;;;;;;;28.73;18.85;;;;;;;;;;1715820;84;21073;-69
2022/03/24 10:20:00;;;;;;;41.48;22.87;;;;;;;;;;1715666;84;21077;-69
2022/03/24 10:22:26;;;;;;;60.67;29.00;;;;;;;;;;1715934;84;21053;-70
2022/03/24 10:24:53;;;;;;;40.40;22.65;;;;;;;;;;1715739;84;21037;-70
2022/03/24 10:27:20;;;;;;;22.77;14.55;;;;;;;;;;1715757;84;21089;-70
2022/03/24 10:29:51;;;;;;;20.23;12.13;;;;;;;;;;1715555;84;21133;-70
2022/03/24 10:32:18;;;;;;;32.28;18.12;;;;;;;;;;1715505;84;21064;-70
2022/03/24 10:34:50;;;;;;;36.20;20.17;;;;;;;;;;1715740;84;21069;-70
2022/03/24 10:37:18;;;;;;;23.90;12.98;;;;;;;;;;1715824;84;21065;-70
2022/03/24 10:40:02;;;;;;;20.37;11.48;;;;;;;;;;1715553;84;21061;-70
2022/03/24 10:42:29;;;;;;;19.00;12.93;;;;;;;;;;1715382;84;21113;-70
2022/03/24 10:45:03;;;;;;;19.65;12.30;;;;;;;;;;1715886;84;21069;-70
2022/03/24 10:47:37;;;;;;;20.60;14.15;;;;;;;;;;1715584;84;21104;-70
2022/03/24 10:50:09;;;;;;;26.30;13.53;;;;;;;;;;1715519;84;21048;-69
2022/03/24 10:52:36;;;;;;;15.38;9.60;;;;;;;;;;1713939;84;21077;-70
2022/03/24 10:55:05;;;;;;;16.42;10.25;;;;;;;;;;1715873;84;21018;-70
2022/03/24 10:57:31;;;;;;;19.10;12.73;;;;;;;;;;1715783;84;21033;-69
2022/03/24 11:00:04;;;;;;;24.35;14.10;;;;;;;;;;1715871;84;21588;-69
2022/03/24 11:02:26;;;;;;;22.22;13.50;;;;;;;;;;1714294;83;21076;-69
2022/03/24 11:04:53;;;;;;;15.70;11.08;;;;;;;;;;1715837;84;21038;-69
2022/03/24 11:07:24;;;;;;;17.37;9.80;;;;;;;;;;1687505;84;21049;-69
2022/03/24 11:09:51;;;;;;;13.43;7.67;;;;;;;;;;1711576;84;21120;-70
2022/03/24 11:12:33;;;;;;;13.53;8.03;;;;;;;;;;1712720;84;21065;-69
2022/03/24 11:15:01;;;;;;;14.00;8.65;;;;;;;;;;1712959;84;21083;-69
2022/03/24 11:17:29;;;;;;;15.83;10.28;;;;;;;;;;1712745;84;20994;-70
2022/03/24 11:20:04;;;;;;;24.25;13.80;;;;;;;;;;1712695;84;21022;-69
2022/03/24 11:22:45;;;;;;;25.45;15.50;;;;;;;;;;1712827;84;21573;-70
2022/03/24 11:25:12;;;;;;;17.87;9.20;;;;;;;;;;1711861;84;21076;-69
2022/03/24 11:27:38;;;;;;;20.95;12.63;;;;;;;;;;1712962;84;21132;-69
2022/03/24 11:30:07;;;;;;;21.48;12.07;;;;;;;;;;1712780;84;21069;-70
2022/03/24 11:32:35;;;;;;;21.02;14.30;;;;;;;;;;1712830;84;21065;-69
2022/03/24 11:35:03;;;;;;;19.05;13.18;;;;;;;;;;1713161;84;20958;-69
2022/03/24 11:37:29;;;;;;;18.45;12.28;;;;;;;;;;1712609;84;21049;-69
2022/03/24 11:40:04;;;;;;;18.95;11.45;;;;;;;;;;1712852;84;21071;-70
2022/03/24 11:42:31;;;;;;;16.45;10.85;;;;;;;;;;1712664;84;21120;-69
2022/03/24 11:46:54;;;;;;;15.85;9.13;;;;;;;;;;1801717;79;24116;-71
2022/03/24 11:49:25;;;;;;;18.37;10.10;;;;;;;;;;1761609;81;21009;-71
2022/03/24 11:52:00;;;;;;;16.95;10.32;;;;;;;;;;1761730;81;21083;-71
2022/03/24 11:54:28;;;;;;;19.90;10.60;;;;;;;;;;1761795;81;21117;-71
2022/03/24 11:57:13;;;;;;;15.93;11.12;;;;;;;;;;1761722;81;21044;-71
2022/03/24 11:59:43;;;;;;;14.75;9.13;;;;;;;;;;1761779;81;21072;-70
2022/03/24 12:02:14;;;;;;;16.52;11.18;;;;;;;;;;1737668;81;21058;-70
2022/03/24 12:04:44;;;;;;;18.20;11.93;;;;;;;;;;1730123;83;21048;-70
2022/03/24 12:07:13;;;;;;;17.20;11.38;;;;;;;;;;1730104;83;21025;-70
2022/03/24 12:10:00;;;;;;;18.80;10.70;;;;;;;;;;1730166;82;21112;-69
2022/03/24 12:12:27;;;;;;;21.10;13.13;;;;;;;;;;1729866;83;21087;-69
2022/03/24 12:14:54;;;;;;;18.57;11.30;;;;;;;;;;1730210;82;21540;-70
2022/03/24 12:17:26;;;;;;;23.62;15.70;;;;;;;;;;1729901;83;21516;-71
2022/03/24 12:19:54;;;;;;;23.30;13.97;;;;;;;;;;1730103;83;21065;-70
2022/03/24 12:22:29;;;;;;;17.23;11.53;;;;;;;;;;1729918;82;21060;-70
2022/03/24 12:25:02;;;;;;;17.55;11.68;;;;;;;;;;1729876;83;21037;-70
2022/03/24 12:27:33;;;;;;;23.67;14.65;;;;;;;;;;1730203;83;21037;-70
2022/03/24 12:30:12;;;;;;;15.80;9.75;;;;;;;;;;1730164;83;21085;-70
2022/03/24 12:32:38;;;;;;;18.23;10.72;;;;;;;;;;1730218;82;21064;-70
2022/03/24 12:35:05;;;;;;;23.80;14.58;;;;;;;;;;1730050;83;21069;-70
2022/03/24 12:37:33;;;;;;;21.02;13.93;;;;;;;;;;1729908;83;21037;-70
2022/03/24 12:40:06;;;;;;;21.93;13.78;;;;;;;;;;1729892;82;21593;-69
2022/03/24 12:42:39;;;;;;;19.98;12.58;;;;;;;;;;1729992;82;21080;-70
2022/03/24 12:45:07;;;;;;;18.62;11.97;;;;;;;;;;1729944;82;21037;-70
2022/03/24 12:47:35;;;;;;;19.70;11.83;;;;;;;;;;1730230;82;21674;-70
2022/03/24 12:50:09;;;;;;;14.50;9.95;;;;;;;;;;1730335;83;21048;-70
2022/03/24 12:52:52;;;;;;;21.65;13.30;;;;;;;;;;1729999;82;21044;-70
2022/03/24 12:55:20;;;;;;;18.02;11.88;;;;;;;;;;1730466;83;21112;-70
2022/03/24 12:57:55;;;;;;;20.77;12.68;;;;;;;;;;1729604;82;21125;-69
2022/03/24 13:00:21;;;;;;;;;;;;;;;;;;1732439;81;21068;-69
2022/03/24 13:02:48;;;;;;;18.27;10.82;;;;;;;;;;1729640;83;20134;-69
2022/03/24 13:05:17;;;;;;;20.27;12.98;;;;;;;;;;1729598;82;21069;-69
2022/03/24 13:07:45;;;;;;;23.22;14.23;;;;;;;;;;1729748;82;21778;-69
2022/03/24 13:10:14;;;;;;;22.90;14.65;;;;;;;;;;1729515;82;21072;-69
2022/03/24 13:12:42;;;;;;;21.33;14.13;;;;;;;;;;1729597;82;21048;-69
2022/03/24 13:15:10;;;;;;;16.15;10.43;;;;;;;;;;1729881;82;21028;-70
2022/03/24 13:17:37;;;;;;;18.25;12.28;;;;;;;;;;1729213;82;21104;-70
2022/03/24 13:20:05;;;;;;;20.45;12.65;;;;;;;;;;1729832;83;21576;-69
2022/03/24 13:22:33;;;;;;;20.00;12.75;;;;;;;;;;1729799;82;21524;-69
2022/03/24 13:25:07;;;;;;;22.45;13.58;;;;;;;;;;1729615;83;21128;-69
2022/03/24 13:27:38;;;;;;;17.45;11.43;;;;;;;;;;1729614;82;21041;-71
2022/03/24 13:30:07;;;;;;;18.60;10.35;;;;;;;;;;1729603;82;21081;-70
2022/03/24 13:32:33;;;;;;;16.90;9.63;;;;;;;;;;1729465;82;21025;-69
2022/03/24 13:35:00;;;;;;;21.27;12.65;;;;;;;;;;1729686;82;21112;-69
2022/03/24 13:37:31;;;;;;;18.95;11.43;;;;;;;;;;1729630;82;21537;-69
2022/03/24 13:39:59;;;;;;;19.98;11.83;;;;;;;;;;1729664;83;21109;-69
2022/03/24 13:42:26;;;;;;;16.50;11.50;;;;;;;;;;1729705;83;21127;-70
2022/03/24 13:44:53;;;;;;;20.85;11.00;;;;;;;;;;1729991;83;21595;-69
2022/03/24 13:47:22;;;;;;;21.50;12.35;;;;;;;;;;1729647;83;21524;-69
2022/03/24 13:49:52;;;;;;;18.82;12.07;;;;;;;;;;1729891;82;21629;-70
2022/03/24 13:52:20;;;;;;;25.12;15.48;;;;;;;;;;1728557;82;21120;-70
2022/03/24 13:55:18;;;;;;;26.20;16.37;;;;;;;;;;1734859;83;21061;-69
2022/03/24 13:57:52;;;;;;;19.77;12.78;;;;;;;;;;1734873;83;20998;-69
2022/03/24 14:00:36;;;;;;;20.88;13.45;;;;;;;;;;1734977;83;21050;-69
2022/03/24 14:03:10;;;;;;;20.27;13.95;;;;;;;;;;1734837;83;21507;-69
2022/03/24 14:05:45;;;;;;;19.30;13.03;;;;;;;;;;1734611;83;21045;-69
2022/03/24 14:08:20;;;;;;;20.80;13.55;;;;;;;;;;1733592;83;21061;-69
2022/03/24 14:10:47;;;;;;;23.67;14.65;;;;;;;;;;1733492;83;21041;-69
2022/03/24 14:13:17;;;;;;;24.55;15.68;;;;;;;;;;1734516;83;21529;-69
2022/03/24 14:15:44;;;;;;;23.22;12.75;;;;;;;;;;1734779;83;21033;-69
2022/03/24 14:18:16;;;;;;;14.85;10.53;;;;;;;;;;1734336;83;21125;-69
2022/03/24 14:20:44;;;;;;;19.20;12.58;;;;;;;;;;1734842;83;21073;-70
2022/03/24 14:23:26;;;;;;;18.15;10.72;;;;;;;;;;1734673;83;21104;-69
2022/03/24 14:25:54;;;;;;;17.65;10.58;;;;;;;;;;1734543;83;21096;-69
2022/03/24 14:28:31;;;;;;;20.15;11.90;;;;;;;;;;1707889;83;21089;-69
2022/03/24 14:30:58;;;;;;;20.85;12.23;;;;;;;;;;1734661;82;21424;-71